EDNY Airport Information

Runway Information
Runway 06 Length 7729 ft width 148 ft
Elevation 1334 ft Threshold 885 ft Heading 60
Runway 24 Length 7729 ft Width 148 ft
Elevation 1367 ft Threshold 675 ft Heading 240
Airport Frequencies
Type APP Name ZURICH ARR Frequency 119.925 MHZ
Type ATIS Name ATIS Frequency 129.6 MHZ
Type INFO Name INFO Frequency 122.5 MHZ
Type RDO Name MUNCHEN IN Frequency 126.95 MHZ
Type TWR Name TWR Frequency 120.075 MHZ
Airport Navaids
Type NDB Name Friedrichshafen Frequency 473 KHZ
Type DME Name Friedrichshafen Frequency 112600 KHZ
Airport Weather Information & NOTAM
ADDS - METARS form results

(2127 UTC 17 December 2017)
 
METAR text: EDNY 172050Z AUTO VRB01KT 9999 FEW044 M01/M03 Q1027
Conditions at: EDNY (FRIEDRICHSHAFEN , DE) observed 2050 UTC 17 December 2017
Temperature: -1.0°C (30°F)
Dewpoint: -3.0°C (27°F) [RH = 86%]
Pressure (altimeter): 30.32 inches Hg (1027.0 mb)
Winds: variable direction winds at 1 MPH (1 knots; 0.5 m/s)
Visibility: 6 or more miles (10+ km)
Ceiling: at least 12,000 feet AGL
Clouds: few clouds at 4400 feet AGL
Weather: no significant weather observed at this time